sensor_id;sensor_type;location;lat;lon;timestamp;temperature;humidity
10057;DHT22;5068;51.286;7.518;2022-12-18T00:00:40;-8.90;55.30
10057;DHT22;5068;51.286;7.518;2022-12-18T00:02:14;-8.90;55.20
10057;DHT22;5068;51.286;7.518;2022-12-18T00:03:47;-8.90;55.00
10057;DHT22;5068;51.286;7.518;2022-12-18T00:05:21;-8.90;55.00
10057;DHT22;5068;51.286;7.518;2022-12-18T00:06:54;-8.90;54.90
10057;DHT22;5068;51.286;7.518;2022-12-18T00:08:27;-8.90;54.90
10057;DHT22;5068;51.286;7.518;2022-12-18T00:10:01;-9.00;54.60
10057;DHT22;5068;51.286;7.518;2022-12-18T00:11:34;-9.00;54.70
10057;DHT22;5068;51.286;7.518;2022-12-18T00:13:07;-9.00;54.70
10057;DHT22;5068;51.286;7.518;2022-12-18T00:14:42;-9.00;54.80
10057;DHT22;5068;51.286;7.518;2022-12-18T00:16:18;-9.00;54.40
10057;DHT22;5068;51.286;7.518;2022-12-18T00:17:52;-9.00;55.10
10057;DHT22;5068;51.286;7.518;2022-12-18T00:19:26;-9.00;54.70
10057;DHT22;5068;51.286;7.518;2022-12-18T00:20:59;-9.00;54.70
10057;DHT22;5068;51.286;7.518;2022-12-18T00:22:33;-9.00;54.80
10057;DHT22;5068;51.286;7.518;2022-12-18T00:24:06;-9.10;54.60
10057;DHT22;5068;51.286;7.518;2022-12-18T00:25:39;-9.10;54.60
10057;DHT22;5068;51.286;7.518;2022-12-18T00:27:13;-9.10;54.60
10057;DHT22;5068;51.286;7.518;2022-12-18T00:28:46;-9.10;54.60
10057;DHT22;5068;51.286;7.518;2022-12-18T00:30:21;-9.10;54.70
10057;DHT22;5068;51.286;7.518;2022-12-18T00:31:55;-9.10;54.70
10057;DHT22;5068;51.286;7.518;2022-12-18T00:33:28;-9.10;54.60
10057;DHT22;5068;51.286;7.518;2022-12-18T00:35:01;-9.20;54.70
10057;DHT22;5068;51.286;7.518;2022-12-18T00:36:35;-9.10;54.80
10057;DHT22;5068;51.286;7.518;2022-12-18T00:38:07;-9.10;54.80
10057;DHT22;5068;51.286;7.518;2022-12-18T00:39:41;-9.10;54.80
10057;DHT22;5068;51.286;7.518;2022-12-18T00:41:15;-9.20;54.80
10057;DHT22;5068;51.286;7.518;2022-12-18T00:43:09;-9.20;54.90
10057;DHT22;5068;51.286;7.518;2022-12-18T00:44:41;-9.10;54.90
10057;DHT22;5068;51.286;7.518;2022-12-18T00:46:16;-9.20;54.70
10057;DHT22;5068;51.286;7.518;2022-12-18T00:47:48;-9.20;54.80
10057;DHT22;5068;51.286;7.518;2022-12-18T00:49:22;-9.20;54.70
10057;DHT22;5068;51.286;7.518;2022-12-18T00:50:55;-9.20;55.30
10057;DHT22;5068;51.286;7.518;2022-12-18T00:52:29;-9.20;54.70
10057;DHT22;5068;51.286;7.518;2022-12-18T00:54:02;-9.20;54.60
10057;DHT22;5068;51.286;7.518;2022-12-18T00:55:35;-9.30;54.60
10057;DHT22;5068;51.286;7.518;2022-12-18T00:57:10;-9.20;54.70
10057;DHT22;5068;51.286;7.518;2022-12-18T00:58:43;-9.20;54.70
10057;DHT22;5068;51.286;7.518;2022-12-18T01:00:16;-9.30;54.60
10057;DHT22;5068;51.286;7.518;2022-12-18T01:01:51;-9.30;54.70
10057;DHT22;5068;51.286;7.518;2022-12-18T01:03:25;-9.30;54.60
10057;DHT22;5068;51.286;7.518;2022-12-18T01:04:58;-9.10;54.80
10057;DHT22;5068;51.286;7.518;2022-12-18T01:06:31;-9.20;54.70
10057;DHT22;5068;51.286;7.518;2022-12-18T01:08:05;-9.30;54.70
10057;DHT22;5068;51.286;7.518;2022-12-18T01:09:37;-9.30;54.70
10057;DHT22;5068;51.286;7.518;2022-12-18T01:11:12;-9.30;54.70
10057;DHT22;5068;51.286;7.518;2022-12-18T01:12:52;-9.30;54.80
10057;DHT22;5068;51.286;7.518;2022-12-18T01:14:25;-9.30;54.70
10057;DHT22;5068;51.286;7.518;2022-12-18T01:15:58;-9.30;54.80
10057;DHT22;5068;51.286;7.518;2022-12-18T01:17:32;-9.40;54.70
10057;DHT22;5068;51.286;7.518;2022-12-18T01:19:05;-9.40;54.80
10057;DHT22;5068;51.286;7.518;2022-12-18T01:20:38;-9.40;54.90
10057;DHT22;5068;51.286;7.518;2022-12-18T01:22:11;-9.40;54.90
10057;DHT22;5068;51.286;7.518;2022-12-18T01:23:44;-9.40;54.90
10057;DHT22;5068;51.286;7.518;2022-12-18T01:25:16;-9.30;55.10
10057;DHT22;5068;51.286;7.518;2022-12-18T01:26:50;-9.40;55.00
10057;DHT22;5068;51.286;7.518;2022-12-18T01:28:23;-9.40;55.00
10057;DHT22;5068;51.286;7.518;2022-12-18T01:29:56;-9.40;54.90
10057;DHT22;5068;51.286;7.518;2022-12-18T01:31:32;-9.40;54.80
10057;DHT22;5068;51.286;7.518;2022-12-18T01:33:08;-9.40;54.90
10057;DHT22;5068;51.286;7.518;2022-12-18T01:34:40;-9.40;54.70
10057;DHT22;5068;51.286;7.518;2022-12-18T01:36:18;-9.40;54.80
10057;DHT22;5068;51.286;7.518;2022-12-18T01:37:54;-9.40;54.70
10057;DHT22;5068;51.286;7.518;2022-12-18T01:39:27;-9.40;54.60
10057;DHT22;5068;51.286;7.518;2022-12-18T01:41:02;-9.40;54.50
10057;DHT22;5068;51.286;7.518;2022-12-18T01:42:34;-9.40;54.60
10057;DHT22;5068;51.286;7.518;2022-12-18T01:46:25;-9.40;54.60
10057;DHT22;5068;51.286;7.518;2022-12-18T01:48:02;-9.50;54.50
10057;DHT22;5068;51.286;7.518;2022-12-18T01:49:39;-9.50;54.50
10057;DHT22;5068;51.286;7.518;2022-12-18T01:51:12;-9.50;54.40
10057;DHT22;5068;51.286;7.518;2022-12-18T01:52:47;-9.50;54.50
10057;DHT22;5068;51.286;7.518;2022-12-18T01:54:23;-9.50;54.60
10057;DHT22;5068;51.286;7.518;2022-12-18T01:55:57;-9.60;54.50
10057;DHT22;5068;51.286;7.518;2022-12-18T01:57:31;-9.60;54.70
10057;DHT22;5068;51.286;7.518;2022-12-18T01:59:06;-9.60;54.70
10057;DHT22;5068;51.286;7.518;2022-12-18T02:00:43;-9.60;54.90
10057;DHT22;5068;51.286;7.518;2022-12-18T02:02:16;-9.60;54.80
10057;DHT22;5068;51.286;7.518;2022-12-18T02:03:51;-9.60;54.90
10057;DHT22;5068;51.286;7.518;2022-12-18T02:05:37;-9.60;54.80
10057;DHT22;5068;51.286;7.518;2022-12-18T02:07:24;-9.60;54.90
10057;DHT22;5068;51.286;7.518;2022-12-18T02:09:10;-9.60;54.90
10057;DHT22;5068;51.286;7.518;2022-12-18T02:10:54;-9.60;54.90
10057;DHT22;5068;51.286;7.518;2022-12-18T02:12:43;-9.60;54.90
10057;DHT22;5068;51.286;7.518;2022-12-18T02:14:30;-9.60;54.80
10057;DHT22;5068;51.286;7.518;2022-12-18T02:16:19;-9.60;54.80
10057;DHT22;5068;51.286;7.518;2022-12-18T02:18:00;-9.60;54.90
10057;DHT22;5068;51.286;7.518;2022-12-18T02:20:04;-9.60;54.90
10057;DHT22;5068;51.286;7.518;2022-12-18T02:21:51;-9.60;54.90
10057;DHT22;5068;51.286;7.518;2022-12-18T02:23:45;-9.60;54.90
10057;DHT22;5068;51.286;7.518;2022-12-18T02:27:33;-9.60;54.90
10057;DHT22;5068;51.286;7.518;2022-12-18T02:29:13;-9.60;54.90
10057;DHT22;5068;51.286;7.518;2022-12-18T02:30:50;-9.60;54.90
10057;DHT22;5068;51.286;7.518;2022-12-18T02:32:34;-9.50;55.00
10057;DHT22;5068;51.286;7.518;2022-12-18T02:34:11;-9.60;54.90
10057;DHT22;5068;51.286;7.518;2022-12-18T02:35:47;-9.60;54.90
10057;DHT22;5068;51.286;7.518;2022-12-18T02:37:22;-9.60;54.90
10057;DHT22;5068;51.286;7.518;2022-12-18T02:38:57;-9.70;54.80
10057;DHT22;5068;51.286;7.518;2022-12-18T02:40:32;-9.70;54.80
10057;DHT22;5068;51.286;7.518;2022-12-18T02:42:06;-9.70;54.90
10057;DHT22;5068;51.286;7.518;2022-12-18T02:43:40;-9.70;54.60
10057;DHT22;5068;51.286;7.518;2022-12-18T02:45:20;-9.70;54.80
10057;DHT22;5068;51.286;7.518;2022-12-18T02:46:56;-9.70;54.40
10057;DHT22;5068;51.286;7.518;2022-12-18T02:48:31;-9.70;55.20
10057;DHT22;5068;51.286;7.518;2022-12-18T02:50:15;-9.70;54.80
10057;DHT22;5068;51.286;7.518;2022-12-18T02:52:04;-9.70;54.90
10057;DHT22;5068;51.286;7.518;2022-12-18T02:53:45;-9.60;54.80
10057;DHT22;5068;51.286;7.518;2022-12-18T02:55:31;-9.70;55.00
10057;DHT22;5068;51.286;7.518;2022-12-18T02:57:26;-9.70;55.00
10057;DHT22;5068;51.286;7.518;2022-12-18T02:59:11;-9.70;55.00
10057;DHT22;5068;51.286;7.518;2022-12-18T03:00:58;-9.70;55.00
10057;DHT22;5068;51.286;7.518;2022-12-18T03:02:39;-9.70;55.00
10057;DHT22;5068;51.286;7.518;2022-12-18T03:04:22;-9.70;55.00
10057;DHT22;5068;51.286;7.518;2022-12-18T03:06:03;-9.60;55.10
10057;DHT22;5068;51.286;7.518;2022-12-18T03:07:42;-9.70;55.00
10057;DHT22;5068;51.286;7.518;2022-12-18T03:09:21;-9.70;55.00
10057;DHT22;5068;51.286;7.518;2022-12-18T03:11:02;-9.70;55.00
10057;DHT22;5068;51.286;7.518;2022-12-18T03:12:42;-9.70;55.00
10057;DHT22;5068;51.286;7.518;2022-12-18T03:14:20;-9.70;55.10
10057;DHT22;5068;51.286;7.518;2022-12-18T03:15:56;-9.70;55.10
10057;DHT22;5068;51.286;7.518;2022-12-18T03:17:34;-9.70;55.20
10057;DHT22;5068;51.286;7.518;2022-12-18T03:19:11;-9.60;55.20
10057;DHT22;5068;51.286;7.518;2022-12-18T03:20:49;-9.70;55.10
10057;DHT22;5068;51.286;7.518;2022-12-18T03:22:27;-9.70;55.10
10057;DHT22;5068;51.286;7.518;2022-12-18T03:24:06;-9.70;55.10
10057;DHT22;5068;51.286;7.518;2022-12-18T03:25:43;-9.70;54.90
10057;DHT22;5068;51.286;7.518;2022-12-18T03:27:21;-9.70;55.00
10057;DHT22;5068;51.286;7.518;2022-12-18T03:29:04;-9.70;55.00
10057;DHT22;5068;51.286;7.518;2022-12-18T03:30:44;-9.70;55.00
10057;DHT22;5068;51.286;7.518;2022-12-18T03:32:24;-9.70;55.10
10057;DHT22;5068;51.286;7.518;2022-12-18T03:34:05;-9.70;55.10
10057;DHT22;5068;51.286;7.518;2022-12-18T03:35:48;-9.70;55.20
10057;DHT22;5068;51.286;7.518;2022-12-18T03:37:22;-9.70;55.20
10057;DHT22;5068;51.286;7.518;2022-12-18T03:38:55;-9.70;55.20
10057;DHT22;5068;51.286;7.518;2022-12-18T03:40:34;-9.70;55.30
10057;DHT22;5068;51.286;7.518;2022-12-18T03:42:15;-9.70;55.40
10057;DHT22;5068;51.286;7.518;2022-12-18T03:44:03;-9.60;55.50
10057;DHT22;5068;51.286;7.518;2022-12-18T03:45:52;-9.70;55.50
10057;DHT22;5068;51.286;7.518;2022-12-18T03:47:33;-9.70;55.50
10057;DHT22;5068;51.286;7.518;2022-12-18T03:49:16;-9.70;55.50
10057;DHT22;5068;51.286;7.518;2022-12-18T03:51:03;-9.70;55.50
10057;DHT22;5068;51.286;7.518;2022-12-18T03:52:45;-9.70;55.50
10057;DHT22;5068;51.286;7.518;2022-12-18T03:54:33;-9.70;55.50
10057;DHT22;5068;51.286;7.518;2022-12-18T03:56:16;-9.60;55.60
10057;DHT22;5068;51.286;7.518;2022-12-18T03:57:52;-9.70;55.40
10057;DHT22;5068;51.286;7.518;2022-12-18T03:59:28;-9.70;55.40
10057;DHT22;5068;51.286;7.518;2022-12-18T04:01:05;-9.70;55.40
10057;DHT22;5068;51.286;7.518;2022-12-18T04:02:44;-9.70;55.40
10057;DHT22;5068;51.286;7.518;2022-12-18T04:04:28;-9.70;55.40
10057;DHT22;5068;51.286;7.518;2022-12-18T04:06:05;-9.70;55.40
10057;DHT22;5068;51.286;7.518;2022-12-18T04:07:43;-9.80;55.30
10057;DHT22;5068;51.286;7.518;2022-12-18T04:09:19;-9.80;55.40
10057;DHT22;5068;51.286;7.518;2022-12-18T04:10:53;-9.80;55.50
10057;DHT22;5068;51.286;7.518;2022-12-18T04:12:29;-9.80;55.60
10057;DHT22;5068;51.286;7.518;2022-12-18T04:14:03;-9.80;55.90
10057;DHT22;5068;51.286;7.518;2022-12-18T04:15:40;-9.90;55.90
10057;DHT22;5068;51.286;7.518;2022-12-18T04:17:17;-9.80;56.10
10057;DHT22;5068;51.286;7.518;2022-12-18T04:18:51;-9.60;56.20
10057;DHT22;5068;51.286;7.518;2022-12-18T04:20:25;-9.80;56.10
10057;DHT22;5068;51.286;7.518;2022-12-18T04:21:59;-9.80;56.10
10057;DHT22;5068;51.286;7.518;2022-12-18T04:23:32;-9.80;56.60
10057;DHT22;5068;51.286;7.518;2022-12-18T04:25:06;-9.80;55.90
10057;DHT22;5068;51.286;7.518;2022-12-18T04:26:44;-9.80;56.20
10057;DHT22;5068;51.286;7.518;2022-12-18T04:28:21;-9.80;55.90
10057;DHT22;5068;51.286;7.518;2022-12-18T04:29:54;-9.80;55.90
10057;DHT22;5068;51.286;7.518;2022-12-18T04:31:28;-9.80;55.90
10057;DHT22;5068;51.286;7.518;2022-12-18T04:33:02;-9.80;55.80
10057;DHT22;5068;51.286;7.518;2022-12-18T04:34:36;-9.80;55.90
10057;DHT22;5068;51.286;7.518;2022-12-18T04:36:10;-9.80;55.80
10057;DHT22;5068;51.286;7.518;2022-12-18T04:37:45;-9.70;56.00
10057;DHT22;5068;51.286;7.518;2022-12-18T04:39:19;-9.70;55.90
10057;DHT22;5068;51.286;7.518;2022-12-18T04:40:54;-9.70;55.90
10057;DHT22;5068;51.286;7.518;2022-12-18T04:42:30;-9.70;55.80
10057;DHT22;5068;51.286;7.518;2022-12-18T04:44:04;-9.70;55.80
10057;DHT22;5068;51.286;7.518;2022-12-18T04:45:37;-9.70;55.80
10057;DHT22;5068;51.286;7.518;2022-12-18T04:47:12;-9.70;55.70
10057;DHT22;5068;51.286;7.518;2022-12-18T04:48:46;-9.70;55.70
10057;DHT22;5068;51.286;7.518;2022-12-18T04:50:19;-9.80;55.70
10057;DHT22;5068;51.286;7.518;2022-12-18T04:51:52;-9.80;55.70
10057;DHT22;5068;51.286;7.518;2022-12-18T04:53:26;-9.80;55.70
10057;DHT22;5068;51.286;7.518;2022-12-18T04:54:59;-9.70;55.90
10057;DHT22;5068;51.286;7.518;2022-12-18T04:56:32;-9.70;55.80
10057;DHT22;5068;51.286;7.518;2022-12-18T04:58:08;-9.70;55.70
10057;DHT22;5068;51.286;7.518;2022-12-18T04:59:41;-9.70;55.70
10057;DHT22;5068;51.286;7.518;2022-12-18T05:01:16;-9.70;55.50
10057;DHT22;5068;51.286;7.518;2022-12-18T05:02:52;-9.70;55.70
10057;DHT22;5068;51.286;7.518;2022-12-18T05:04:24;-9.70;55.70
10057;DHT22;5068;51.286;7.518;2022-12-18T05:05:57;-9.70;55.80
10057;DHT22;5068;51.286;7.518;2022-12-18T05:07:31;-9.70;55.80
10057;DHT22;5068;51.286;7.518;2022-12-18T05:09:04;-9.70;55.70
10057;DHT22;5068;51.286;7.518;2022-12-18T05:10:38;-9.70;55.70
10057;DHT22;5068;51.286;7.518;2022-12-18T05:12:12;-9.70;55.70
10057;DHT22;5068;51.286;7.518;2022-12-18T05:13:45;-9.70;55.70
10057;DHT22;5068;51.286;7.518;2022-12-18T05:15:19;-9.70;55.80
10057;DHT22;5068;51.286;7.518;2022-12-18T05:16:51;-9.70;55.70
10057;DHT22;5068;51.286;7.518;2022-12-18T05:18:33;-9.70;55.60
10057;DHT22;5068;51.286;7.518;2022-12-18T05:20:07;-9.70;55.60
10057;DHT22;5068;51.286;7.518;2022-12-18T05:21:41;-9.70;55.70
10057;DHT22;5068;51.286;7.518;2022-12-18T05:23:15;-9.70;55.50
10057;DHT22;5068;51.286;7.518;2022-12-18T05:24:48;-9.70;55.50
10057;DHT22;5068;51.286;7.518;2022-12-18T05:26:21;-9.70;55.50
10057;DHT22;5068;51.286;7.518;2022-12-18T05:27:54;-9.80;55.30
10057;DHT22;5068;51.286;7.518;2022-12-18T05:29:27;-9.70;55.50
10057;DHT22;5068;51.286;7.518;2022-12-18T05:31:02;-9.70;55.40
10057;DHT22;5068;51.286;7.518;2022-12-18T05:32:37;-9.80;55.50
10057;DHT22;5068;51.286;7.518;2022-12-18T05:34:13;-9.80;55.50
10057;DHT22;5068;51.286;7.518;2022-12-18T05:35:50;-9.80;55.40
10057;DHT22;5068;51.286;7.518;2022-12-18T05:37:23;-9.80;55.40
10057;DHT22;5068;51.286;7.518;2022-12-18T05:38:56;-9.80;55.30
10057;DHT22;5068;51.286;7.518;2022-12-18T05:40:29;-9.80;55.20
10057;DHT22;5068;51.286;7.518;2022-12-18T05:42:04;-9.80;55.30
10057;DHT22;5068;51.286;7.518;2022-12-18T05:43:38;-9.80;55.30
10057;DHT22;5068;51.286;7.518;2022-12-18T05:45:13;-9.80;55.30
10057;DHT22;5068;51.286;7.518;2022-12-18T05:46:45;-9.80;55.20
10057;DHT22;5068;51.286;7.518;2022-12-18T05:48:19;-9.80;55.10
10057;DHT22;5068;51.286;7.518;2022-12-18T05:49:53;-9.80;55.20
10057;DHT22;5068;51.286;7.518;2022-12-18T05:51:26;-9.80;55.10
10057;DHT22;5068;51.286;7.518;2022-12-18T05:53:00;-9.80;55.20
10057;DHT22;5068;51.286;7.518;2022-12-18T05:54:32;-9.80;55.20
10057;DHT22;5068;51.286;7.518;2022-12-18T05:56:07;-9.80;55.30
10057;DHT22;5068;51.286;7.518;2022-12-18T05:57:42;-9.80;55.40
10057;DHT22;5068;51.286;7.518;2022-12-18T05:59:15;-9.80;55.20
10057;DHT22;5068;51.286;7.518;2022-12-18T06:00:48;-9.80;55.30
10057;DHT22;5068;51.286;7.518;2022-12-18T06:02:22;-9.80;55.20
10057;DHT22;5068;51.286;7.518;2022-12-18T06:03:55;-9.80;55.30
10057;DHT22;5068;51.286;7.518;2022-12-18T06:05:29;-9.80;55.30
10057;DHT22;5068;51.286;7.518;2022-12-18T06:07:07;-9.80;55.30
10057;DHT22;5068;51.286;7.518;2022-12-18T06:08:41;-9.80;55.20
10057;DHT22;5068;51.286;7.518;2022-12-18T06:10:17;-9.80;55.20
10057;DHT22;5068;51.286;7.518;2022-12-18T06:11:51;-9.90;55.10
10057;DHT22;5068;51.286;7.518;2022-12-18T06:13:25;-9.80;55.30
10057;DHT22;5068;51.286;7.518;2022-12-18T06:14:58;-9.80;55.20
10057;DHT22;5068;51.286;7.518;2022-12-18T06:16:31;-9.80;55.20
10057;DHT22;5068;51.286;7.518;2022-12-18T06:18:05;-9.90;55.30
10057;DHT22;5068;51.286;7.518;2022-12-18T06:19:38;-9.80;55.20
10057;DHT22;5068;51.286;7.518;2022-12-18T06:21:13;-9.80;55.30
10057;DHT22;5068;51.286;7.518;2022-12-18T06:22:46;-9.80;55.30
10057;DHT22;5068;51.286;7.518;2022-12-18T06:24:20;-9.90;55.20
10057;DHT22;5068;51.286;7.518;2022-12-18T06:25:53;-9.80;55.20
10057;DHT22;5068;51.286;7.518;2022-12-18T06:27:27;-9.90;55.30
10057;DHT22;5068;51.286;7.518;2022-12-18T06:29:02;-9.90;55.20
10057;DHT22;5068;51.286;7.518;2022-12-18T06:30:35;-9.80;55.40
10057;DHT22;5068;51.286;7.518;2022-12-18T06:32:09;-9.90;55.20
10057;DHT22;5068;51.286;7.518;2022-12-18T06:33:42;-9.90;55.30
10057;DHT22;5068;51.286;7.518;2022-12-18T06:35:15;-9.80;55.20
10057;DHT22;5068;51.286;7.518;2022-12-18T06:36:51;-9.80;55.30
10057;DHT22;5068;51.286;7.518;2022-12-18T06:38:24;-9.90;55.10
10057;DHT22;5068;51.286;7.518;2022-12-18T06:39:56;-9.90;55.20
10057;DHT22;5068;51.286;7.518;2022-12-18T06:41:29;-9.90;55.20
10057;DHT22;5068;51.286;7.518;2022-12-18T06:43:03;-9.90;55.20
10057;DHT22;5068;51.286;7.518;2022-12-18T06:44:36;-9.90;55.20
10057;DHT22;5068;51.286;7.518;2022-12-18T06:46:09;-9.90;55.20
10057;DHT22;5068;51.286;7.518;2022-12-18T06:47:43;-9.90;55.40
10057;DHT22;5068;51.286;7.518;2022-12-18T06:49:16;-9.90;55.30
10057;DHT22;5068;51.286;7.518;2022-12-18T06:50:49;-9.90;55.30
10057;DHT22;5068;51.286;7.518;2022-12-18T06:52:24;-9.90;55.30
10057;DHT22;5068;51.286;7.518;2022-12-18T06:53:57;-9.90;55.40
10057;DHT22;5068;51.286;7.518;2022-12-18T06:55:30;-9.90;55.40
10057;DHT22;5068;51.286;7.518;2022-12-18T06:57:03;-9.90;55.20
10057;DHT22;5068;51.286;7.518;2022-12-18T06:58:37;-9.90;55.40
10057;DHT22;5068;51.286;7.518;2022-12-18T07:00:10;-9.90;55.40
10057;DHT22;5068;51.286;7.518;2022-12-18T07:01:47;-9.90;55.50
10057;DHT22;5068;51.286;7.518;2022-12-18T07:03:20;-9.90;55.50
10057;DHT22;5068;51.286;7.518;2022-12-18T07:04:54;-9.90;55.50
10057;DHT22;5068;51.286;7.518;2022-12-18T07:06:27;-9.90;55.50
10057;DHT22;5068;51.286;7.518;2022-12-18T07:08:01;-9.90;55.40
10057;DHT22;5068;51.286;7.518;2022-12-18T07:09:35;-9.90;55.50
10057;DHT22;5068;51.286;7.518;2022-12-18T07:11:07;-9.90;55.50
10057;DHT22;5068;51.286;7.518;2022-12-18T07:12:40;-9.90;55.50
10057;DHT22;5068;51.286;7.518;2022-12-18T07:14:14;-9.90;55.40
10057;DHT22;5068;51.286;7.518;2022-12-18T07:15:47;-9.90;55.50
10057;DHT22;5068;51.286;7.518;2022-12-18T07:17:20;-9.90;55.50
10057;DHT22;5068;51.286;7.518;2022-12-18T07:18:54;-9.90;55.50
10057;DHT22;5068;51.286;7.518;2022-12-18T07:20:28;-9.90;55.50
10057;DHT22;5068;51.286;7.518;2022-12-18T07:22:01;-9.90;55.40
10057;DHT22;5068;51.286;7.518;2022-12-18T07:23:36;-9.90;55.40
10057;DHT22;5068;51.286;7.518;2022-12-18T07:25:10;-9.90;55.50
10057;DHT22;5068;51.286;7.518;2022-12-18T07:26:45;-9.90;55.50
10057;DHT22;5068;51.286;7.518;2022-12-18T07:28:19;-9.90;55.50
10057;DHT22;5068;51.286;7.518;2022-12-18T07:29:52;-9.90;55.50
10057;DHT22;5068;51.286;7.518;2022-12-18T07:31:27;-9.90;55.70
10057;DHT22;5068;51.286;7.518;2022-12-18T07:33:00;-9.90;55.70
10057;DHT22;5068;51.286;7.518;2022-12-18T07:34:34;-9.90;55.60
10057;DHT22;5068;51.286;7.518;2022-12-18T07:36:08;-9.80;55.70
10057;DHT22;5068;51.286;7.518;2022-12-18T07:37:42;-9.90;55.70
10057;DHT22;5068;51.286;7.518;2022-12-18T07:39:17;-9.90;55.70
10057;DHT22;5068;51.286;7.518;2022-12-18T07:40:51;-9.90;55.70
10057;DHT22;5068;51.286;7.518;2022-12-18T07:42:24;-9.90;55.70
10057;DHT22;5068;51.286;7.518;2022-12-18T07:44:03;-9.80;55.80
10057;DHT22;5068;51.286;7.518;2022-12-18T07:45:37;-9.80;55.80
10057;DHT22;5068;51.286;7.518;2022-12-18T07:47:10;-9.80;55.80
10057;DHT22;5068;51.286;7.518;2022-12-18T07:48:44;-9.80;55.80
10057;DHT22;5068;51.286;7.518;2022-12-18T07:50:21;-9.80;55.90
10057;DHT22;5068;51.286;7.518;2022-12-18T07:51:55;-9.80;55.80
10057;DHT22;5068;51.286;7.518;2022-12-18T07:53:29;-9.80;55.90
10057;DHT22;5068;51.286;7.518;2022-12-18T07:55:05;-9.80;56.00
10057;DHT22;5068;51.286;7.518;2022-12-18T07:56:39;-9.80;56.00
10057;DHT22;5068;51.286;7.518;2022-12-18T07:58:12;-9.80;56.00
10057;DHT22;5068;51.286;7.518;2022-12-18T07:59:45;-9.80;56.10
10057;DHT22;5068;51.286;7.518;2022-12-18T08:01:18;-9.70;56.20
10057;DHT22;5068;51.286;7.518;2022-12-18T08:02:52;-9.70;56.20
10057;DHT22;5068;51.286;7.518;2022-12-18T08:04:26;-9.70;56.20
10057;DHT22;5068;51.286;7.518;2022-12-18T08:06:00;-9.70;56.20
10057;DHT22;5068;51.286;7.518;2022-12-18T08:07:34;-9.70;56.30
10057;DHT22;5068;51.286;7.518;2022-12-18T08:09:09;-9.70;56.20
10057;DHT22;5068;51.286;7.518;2022-12-18T08:10:44;-9.70;56.40
10057;DHT22;5068;51.286;7.518;2022-12-18T08:12:19;-9.70;56.40
10057;DHT22;5068;51.286;7.518;2022-12-18T08:13:52;-9.70;56.40
10057;DHT22;5068;51.286;7.518;2022-12-18T08:15:26;-9.60;56.70
10057;DHT22;5068;51.286;7.518;2022-12-18T08:17:00;-9.60;56.70
10057;DHT22;5068;51.286;7.518;2022-12-18T08:18:34;-9.60;56.70
10057;DHT22;5068;51.286;7.518;2022-12-18T08:20:09;-9.60;56.90
10057;DHT22;5068;51.286;7.518;2022-12-18T08:21:43;-9.60;57.00
10057;DHT22;5068;51.286;7.518;2022-12-18T08:23:16;-9.60;57.00
10057;DHT22;5068;51.286;7.518;2022-12-18T08:24:50;-9.60;57.10
10057;DHT22;5068;51.286;7.518;2022-12-18T08:26:26;-9.50;57.10
10057;DHT22;5068;51.286;7.518;2022-12-18T08:28:01;-9.50;57.20
10057;DHT22;5068;51.286;7.518;2022-12-18T08:29:33;-9.50;57.20
10057;DHT22;5068;51.286;7.518;2022-12-18T08:31:07;-9.40;57.40
10057;DHT22;5068;51.286;7.518;2022-12-18T08:32:41;-9.40;57.70
10057;DHT22;5068;51.286;7.518;2022-12-18T08:34:17;-9.40;57.70
10057;DHT22;5068;51.286;7.518;2022-12-18T08:35:50;-9.40;57.70
10057;DHT22;5068;51.286;7.518;2022-12-18T08:37:23;-9.30;57.90
10057;DHT22;5068;51.286;7.518;2022-12-18T08:38:57;-9.30;58.00
10057;DHT22;5068;51.286;7.518;2022-12-18T08:40:31;-9.30;58.00
10057;DHT22;5068;51.286;7.518;2022-12-18T08:42:06;-9.30;58.10
10057;DHT22;5068;51.286;7.518;2022-12-18T08:43:57;-9.20;58.20
10057;DHT22;5068;51.286;7.518;2022-12-18T08:45:47;-9.20;58.40
10057;DHT22;5068;51.286;7.518;2022-12-18T08:47:21;-9.10;58.50
10057;DHT22;5068;51.286;7.518;2022-12-18T08:48:54;-9.10;58.60
10057;DHT22;5068;51.286;7.518;2022-12-18T08:50:28;-9.10;58.70
10057;DHT22;5068;51.286;7.518;2022-12-18T08:52:01;-9.00;58.80
10057;DHT22;5068;51.286;7.518;2022-12-18T08:53:35;-9.00;59.00
10057;DHT22;5068;51.286;7.518;2022-12-18T08:55:09;-8.90;59.20
10057;DHT22;5068;51.286;7.518;2022-12-18T08:56:42;-8.90;59.20
10057;DHT22;5068;51.286;7.518;2022-12-18T08:58:17;-8.90;59.30
10057;DHT22;5068;51.286;7.518;2022-12-18T08:59:51;-8.80;59.50
10057;DHT22;5068;51.286;7.518;2022-12-18T09:01:24;-8.80;59.50
10057;DHT22;5068;51.286;7.518;2022-12-18T09:02:58;-8.80;59.50
10057;DHT22;5068;51.286;7.518;2022-12-18T09:04:31;-8.70;59.80
10057;DHT22;5068;51.286;7.518;2022-12-18T09:06:05;-8.70;59.80
10057;DHT22;5068;51.286;7.518;2022-12-18T09:07:39;-8.60;60.00
10057;DHT22;5068;51.286;7.518;2022-12-18T09:09:12;-8.60;60.00
10057;DHT22;5068;51.286;7.518;2022-12-18T09:10:49;-8.50;60.10
10057;DHT22;5068;51.286;7.518;2022-12-18T09:12:22;-8.50;60.30
10057;DHT22;5068;51.286;7.518;2022-12-18T09:13:58;-8.50;60.20
10057;DHT22;5068;51.286;7.518;2022-12-18T09:15:32;-8.40;60.50
10057;DHT22;5068;51.286;7.518;2022-12-18T09:17:05;-8.40;60.40
10057;DHT22;5068;51.286;7.518;2022-12-18T09:18:39;-8.30;60.50
10057;DHT22;5068;51.286;7.518;2022-12-18T09:20:13;-8.30;60.60
10057;DHT22;5068;51.286;7.518;2022-12-18T09:21:47;-8.20;60.90
10057;DHT22;5068;51.286;7.518;2022-12-18T09:23:21;-8.20;60.90
10057;DHT22;5068;51.286;7.518;2022-12-18T09:24:54;-8.10;61.10
10057;DHT22;5068;51.286;7.518;2022-12-18T09:26:27;-8.10;61.20
10057;DHT22;5068;51.286;7.518;2022-12-18T09:28:01;-8.00;61.40
10057;DHT22;5068;51.286;7.518;2022-12-18T09:29:36;-8.00;61.50
10057;DHT22;5068;51.286;7.518;2022-12-18T09:31:11;-7.90;61.80
10057;DHT22;5068;51.286;7.518;2022-12-18T09:32:46;-7.90;62.00
10057;DHT22;5068;51.286;7.518;2022-12-18T09:34:19;-7.80;62.70
10057;DHT22;5068;51.286;7.518;2022-12-18T09:35:53;-7.80;62.00
10057;DHT22;5068;51.286;7.518;2022-12-18T09:37:26;-7.70;62.00
10057;DHT22;5068;51.286;7.518;2022-12-18T09:38:59;-7.70;62.20
10057;DHT22;5068;51.286;7.518;2022-12-18T09:40:42;-7.60;62.50
10057;DHT22;5068;51.286;7.518;2022-12-18T09:42:20;-7.60;62.70
10057;DHT22;5068;51.286;7.518;2022-12-18T09:43:58;-7.50;62.90
10057;DHT22;5068;51.286;7.518;2022-12-18T09:45:41;-7.40;63.10
10057;DHT22;5068;51.286;7.518;2022-12-18T09:47:19;-7.40;63.20
10057;DHT22;5068;51.286;7.518;2022-12-18T09:48:59;-7.30;63.60
10057;DHT22;5068;51.286;7.518;2022-12-18T09:50:39;-7.20;63.80
10057;DHT22;5068;51.286;7.518;2022-12-18T09:52:17;-7.20;64.00
10057;DHT22;5068;51.286;7.518;2022-12-18T09:53:58;-7.10;64.20
10057;DHT22;5068;51.286;7.518;2022-12-18T09:55:37;-7.00;64.60
10057;DHT22;5068;51.286;7.518;2022-12-18T09:57:15;-6.90;64.60
10057;DHT22;5068;51.286;7.518;2022-12-18T09:58:56;-6.80;64.70
10057;DHT22;5068;51.286;7.518;2022-12-18T10:00:31;-6.70;64.90
10057;DHT22;5068;51.286;7.518;2022-12-18T10:02:17;-6.70;64.60
10057;DHT22;5068;51.286;7.518;2022-12-18T10:03:54;-6.60;64.70
10057;DHT22;5068;51.286;7.518;2022-12-18T10:05:34;-6.50;64.70
10057;DHT22;5068;51.286;7.518;2022-12-18T10:07:16;-6.50;64.60
10057;DHT22;5068;51.286;7.518;2022-12-18T10:08:59;-6.40;64.70
10057;DHT22;5068;51.286;7.518;2022-12-18T10:10:45;-6.40;64.70
10057;DHT22;5068;51.286;7.518;2022-12-18T10:12:25;-6.30;64.70
10057;DHT22;5068;51.286;7.518;2022-12-18T10:14:09;-6.20;64.80
10057;DHT22;5068;51.286;7.518;2022-12-18T10:16:00;-6.10;65.00
10057;DHT22;5068;51.286;7.518;2022-12-18T10:17:47;-6.10;65.00
10057;DHT22;5068;51.286;7.518;2022-12-18T10:19:35;-6.00;65.10